sensor_id;sensor_type;location;lat;lon;timestamp;P1;durP1;ratioP1;P2;durP2;ratioP2
6485;SDS011;3276;48.490;9.222;2023-12-29T00:01:01;2.80;;;1.70;;
6485;SDS011;3276;48.490;9.222;2023-12-29T00:03:27;2.43;;;1.60;;
6485;SDS011;3276;48.490;9.222;2023-12-29T00:05:53;2.67;;;1.30;;
6485;SDS011;3276;48.490;9.222;2023-12-29T00:08:19;3.70;;;1.90;;
6485;SDS011;3276;48.490;9.222;2023-12-29T00:10:45;2.20;;;1.70;;
6485;SDS011;3276;48.490;9.222;2023-12-29T00:13:10;2.53;;;1.93;;
6485;SDS011;3276;48.490;9.222;2023-12-29T00:15:36;3.53;;;1.63;;
6485;SDS011;3276;48.490;9.222;2023-12-29T00:18:03;2.40;;;1.63;;
6485;SDS011;3276;48.490;9.222;2023-12-29T00:20:29;3.13;;;2.00;;
6485;SDS011;3276;48.490;9.222;2023-12-29T00:22:55;2.77;;;1.70;;
6485;SDS011;3276;48.490;9.222;2023-12-29T00:25:23;2.50;;;1.60;;
6485;SDS011;3276;48.490;9.222;2023-12-29T00:27:49;2.67;;;1.70;;
6485;SDS011;3276;48.490;9.222;2023-12-29T00:30:15;3.77;;;2.00;;
6485;SDS011;3276;48.490;9.222;2023-12-29T00:32:41;6.70;;;2.10;;
6485;SDS011;3276;48.490;9.222;2023-12-29T00:35:07;5.53;;;2.57;;
6485;SDS011;3276;48.490;9.222;2023-12-29T00:37:33;3.20;;;2.13;;
6485;SDS011;3276;48.490;9.222;2023-12-29T00:39:59;2.50;;;2.30;;
6485;SDS011;3276;48.490;9.222;2023-12-29T00:42:25;4.37;;;2.10;;
6485;SDS011;3276;48.490;9.222;2023-12-29T00:44:51;3.83;;;1.90;;
6485;SDS011;3276;48.490;9.222;2023-12-29T00:47:17;3.37;;;1.93;;
6485;SDS011;3276;48.490;9.222;2023-12-29T00:49:44;2.80;;;2.23;;
6485;SDS011;3276;48.490;9.222;2023-12-29T00:52:10;2.87;;;2.00;;
6485;SDS011;3276;48.490;9.222;2023-12-29T00:54:36;4.63;;;2.27;;
6485;SDS011;3276;48.490;9.222;2023-12-29T00:57:02;4.20;;;2.03;;
6485;SDS011;3276;48.490;9.222;2023-12-29T00:59:28;2.93;;;2.00;;
6485;SDS011;3276;48.490;9.222;2023-12-29T01:01:54;2.53;;;1.60;;
6485;SDS011;3276;48.490;9.222;2023-12-29T01:04:20;2.70;;;2.23;;
6485;SDS011;3276;48.490;9.222;2023-12-29T01:06:46;2.63;;;1.70;;
6485;SDS011;3276;48.490;9.222;2023-12-29T01:09:12;2.27;;;1.93;;
6485;SDS011;3276;48.490;9.222;2023-12-29T01:11:38;2.80;;;1.93;;
6485;SDS011;3276;48.490;9.222;2023-12-29T01:14:04;3.23;;;2.00;;
6485;SDS011;3276;48.490;9.222;2023-12-29T01:16:31;3.10;;;1.93;;
6485;SDS011;3276;48.490;9.222;2023-12-29T01:18:56;2.77;;;2.43;;
6485;SDS011;3276;48.490;9.222;2023-12-29T01:21:22;3.40;;;2.30;;
6485;SDS011;3276;48.490;9.222;2023-12-29T01:23:48;8.30;;;1.93;;
6485;SDS011;3276;48.490;9.222;2023-12-29T01:26:14;3.20;;;2.10;;
6485;SDS011;3276;48.490;9.222;2023-12-29T01:28:40;2.63;;;1.43;;
6485;SDS011;3276;48.490;9.222;2023-12-29T01:31:06;3.00;;;2.33;;
6485;SDS011;3276;48.490;9.222;2023-12-29T01:33:34;3.17;;;2.13;;
6485;SDS011;3276;48.490;9.222;2023-12-29T01:36:00;3.50;;;2.37;;
6485;SDS011;3276;48.490;9.222;2023-12-29T01:38:26;3.23;;;2.10;;
6485;SDS011;3276;48.490;9.222;2023-12-29T01:40:52;4.07;;;2.30;;
6485;SDS011;3276;48.490;9.222;2023-12-29T01:43:17;3.33;;;2.03;;
6485;SDS011;3276;48.490;9.222;2023-12-29T01:45:43;5.53;;;2.20;;
6485;SDS011;3276;48.490;9.222;2023-12-29T01:48:09;3.20;;;1.90;;
6485;SDS011;3276;48.490;9.222;2023-12-29T01:50:35;3.10;;;2.07;;
6485;SDS011;3276;48.490;9.222;2023-12-29T01:53:02;4.10;;;2.37;;
6485;SDS011;3276;48.490;9.222;2023-12-29T01:55:28;4.23;;;1.80;;
6485;SDS011;3276;48.490;9.222;2023-12-29T01:57:55;3.30;;;2.23;;
6485;SDS011;3276;48.490;9.222;2023-12-29T02:00:21;2.73;;;1.70;;
6485;SDS011;3276;48.490;9.222;2023-12-29T02:02:47;3.00;;;1.87;;
6485;SDS011;3276;48.490;9.222;2023-12-29T02:05:14;3.77;;;2.30;;
6485;SDS011;3276;48.490;9.222;2023-12-29T02:07:41;3.10;;;1.90;;
6485;SDS011;3276;48.490;9.222;2023-12-29T02:10:07;3.87;;;2.03;;
6485;SDS011;3276;48.490;9.222;2023-12-29T02:12:34;4.47;;;2.70;;
6485;SDS011;3276;48.490;9.222;2023-12-29T02:15:02;3.37;;;1.90;;
6485;SDS011;3276;48.490;9.222;2023-12-29T02:17:36;5.93;;;2.90;;
6485;SDS011;3276;48.490;9.222;2023-12-29T02:20:03;5.80;;;2.50;;
6485;SDS011;3276;48.490;9.222;2023-12-29T02:22:30;6.90;;;3.00;;
6485;SDS011;3276;48.490;9.222;2023-12-29T02:24:56;2.93;;;2.57;;
6485;SDS011;3276;48.490;9.222;2023-12-29T02:32:26;3.43;;;1.93;;
6485;SDS011;3276;48.490;9.222;2023-12-29T02:34:52;5.77;;;1.97;;
6485;SDS011;3276;48.490;9.222;2023-12-29T02:37:19;4.10;;;2.80;;
6485;SDS011;3276;48.490;9.222;2023-12-29T02:39:45;3.40;;;2.50;;
6485;SDS011;3276;48.490;9.222;2023-12-29T02:42:11;2.97;;;2.17;;
6485;SDS011;3276;48.490;9.222;2023-12-29T02:44:37;2.60;;;1.80;;
6485;SDS011;3276;48.490;9.222;2023-12-29T02:47:03;3.60;;;2.13;;
6485;SDS011;3276;48.490;9.222;2023-12-29T02:49:29;2.87;;;1.70;;
6485;SDS011;3276;48.490;9.222;2023-12-29T02:51:55;4.73;;;2.80;;
6485;SDS011;3276;48.490;9.222;2023-12-29T02:54:21;4.30;;;2.10;;
6485;SDS011;3276;48.490;9.222;2023-12-29T02:56:47;3.47;;;2.03;;
6485;SDS011;3276;48.490;9.222;2023-12-29T02:59:13;3.23;;;1.73;;
6485;SDS011;3276;48.490;9.222;2023-12-29T03:01:39;2.53;;;2.03;;
6485;SDS011;3276;48.490;9.222;2023-12-29T03:04:05;3.20;;;1.77;;
6485;SDS011;3276;48.490;9.222;2023-12-29T03:06:31;3.47;;;1.50;;
6485;SDS011;3276;48.490;9.222;2023-12-29T03:08:57;2.83;;;1.53;;
6485;SDS011;3276;48.490;9.222;2023-12-29T03:11:23;2.43;;;1.30;;
6485;SDS011;3276;48.490;9.222;2023-12-29T03:13:49;3.50;;;1.70;;
6485;SDS011;3276;48.490;9.222;2023-12-29T03:16:15;3.73;;;1.80;;
6485;SDS011;3276;48.490;9.222;2023-12-29T03:18:41;2.87;;;1.20;;
6485;SDS011;3276;48.490;9.222;2023-12-29T03:21:07;2.90;;;1.60;;
6485;SDS011;3276;48.490;9.222;2023-12-29T03:23:33;3.57;;;1.30;;
6485;SDS011;3276;48.490;9.222;2023-12-29T03:26:00;2.60;;;1.90;;
6485;SDS011;3276;48.490;9.222;2023-12-29T03:28:26;2.63;;;1.60;;
6485;SDS011;3276;48.490;9.222;2023-12-29T03:30:52;3.57;;;1.97;;
6485;SDS011;3276;48.490;9.222;2023-12-29T03:33:17;2.33;;;1.37;;
6485;SDS011;3276;48.490;9.222;2023-12-29T03:35:43;2.20;;;1.70;;
6485;SDS011;3276;48.490;9.222;2023-12-29T03:38:09;2.03;;;1.33;;
6485;SDS011;3276;48.490;9.222;2023-12-29T03:40:35;2.60;;;1.63;;
6485;SDS011;3276;48.490;9.222;2023-12-29T03:43:01;2.40;;;1.40;;
6485;SDS011;3276;48.490;9.222;2023-12-29T03:45:27;2.60;;;1.90;;
6485;SDS011;3276;48.490;9.222;2023-12-29T03:47:53;3.37;;;1.80;;
6485;SDS011;3276;48.490;9.222;2023-12-29T03:50:19;2.50;;;1.53;;
6485;SDS011;3276;48.490;9.222;2023-12-29T03:52:45;2.87;;;1.57;;
6485;SDS011;3276;48.490;9.222;2023-12-29T03:55:11;2.70;;;1.67;;
6485;SDS011;3276;48.490;9.222;2023-12-29T03:57:37;3.03;;;1.73;;
6485;SDS011;3276;48.490;9.222;2023-12-29T04:00:04;3.40;;;1.63;;
6485;SDS011;3276;48.490;9.222;2023-12-29T04:02:31;2.80;;;1.70;;
6485;SDS011;3276;48.490;9.222;2023-12-29T04:04:58;2.87;;;1.53;;
6485;SDS011;3276;48.490;9.222;2023-12-29T04:07:26;2.15;;;1.50;;
6485;SDS011;3276;48.490;9.222;2023-12-29T04:09:52;2.30;;;1.50;;
6485;SDS011;3276;48.490;9.222;2023-12-29T04:12:18;3.13;;;1.77;;
6485;SDS011;3276;48.490;9.222;2023-12-29T04:14:43;5.40;;;2.40;;
6485;SDS011;3276;48.490;9.222;2023-12-29T04:17:09;2.37;;;1.70;;
6485;SDS011;3276;48.490;9.222;2023-12-29T04:19:39;3.53;;;2.10;;
6485;SDS011;3276;48.490;9.222;2023-12-29T04:22:05;2.80;;;1.50;;
6485;SDS011;3276;48.490;9.222;2023-12-29T04:24:32;3.90;;;1.90;;
6485;SDS011;3276;48.490;9.222;2023-12-29T04:26:58;2.43;;;1.53;;
6485;SDS011;3276;48.490;9.222;2023-12-29T04:29:24;2.73;;;1.60;;
6485;SDS011;3276;48.490;9.222;2023-12-29T04:31:50;3.40;;;1.57;;
6485;SDS011;3276;48.490;9.222;2023-12-29T04:34:16;2.40;;;2.00;;
6485;SDS011;3276;48.490;9.222;2023-12-29T04:36:42;2.87;;;1.80;;
6485;SDS011;3276;48.490;9.222;2023-12-29T04:39:08;3.10;;;1.30;;
6485;SDS011;3276;48.490;9.222;2023-12-29T04:41:34;2.77;;;1.70;;
6485;SDS011;3276;48.490;9.222;2023-12-29T04:44:00;2.67;;;1.80;;
6485;SDS011;3276;48.490;9.222;2023-12-29T04:46:26;3.17;;;1.40;;
6485;SDS011;3276;48.490;9.222;2023-12-29T04:48:52;2.50;;;1.80;;
6485;SDS011;3276;48.490;9.222;2023-12-29T04:51:18;4.07;;;1.80;;
6485;SDS011;3276;48.490;9.222;2023-12-29T04:53:45;2.90;;;2.07;;
6485;SDS011;3276;48.490;9.222;2023-12-29T04:56:11;2.40;;;1.40;;
6485;SDS011;3276;48.490;9.222;2023-12-29T04:58:37;2.50;;;1.63;;
6485;SDS011;3276;48.490;9.222;2023-12-29T05:01:03;3.47;;;1.70;;
6485;SDS011;3276;48.490;9.222;2023-12-29T05:03:29;5.40;;;1.83;;
6485;SDS011;3276;48.490;9.222;2023-12-29T05:05:55;2.67;;;1.53;;
6485;SDS011;3276;48.490;9.222;2023-12-29T05:08:21;3.40;;;1.67;;
6485;SDS011;3276;48.490;9.222;2023-12-29T05:10:47;3.80;;;1.90;;
6485;SDS011;3276;48.490;9.222;2023-12-29T05:13:13;3.00;;;2.00;;
6485;SDS011;3276;48.490;9.222;2023-12-29T05:15:39;1.70;;;1.03;;
6485;SDS011;3276;48.490;9.222;2023-12-29T05:18:05;2.30;;;1.60;;
6485;SDS011;3276;48.490;9.222;2023-12-29T05:20:31;2.20;;;1.20;;
6485;SDS011;3276;48.490;9.222;2023-12-29T05:22:57;2.70;;;1.43;;
6485;SDS011;3276;48.490;9.222;2023-12-29T05:25:23;2.20;;;1.70;;
6485;SDS011;3276;48.490;9.222;2023-12-29T05:27:49;2.07;;;1.23;;
6485;SDS011;3276;48.490;9.222;2023-12-29T05:30:15;2.50;;;1.50;;
6485;SDS011;3276;48.490;9.222;2023-12-29T05:32:41;2.27;;;1.23;;
6485;SDS011;3276;48.490;9.222;2023-12-29T05:35:07;2.90;;;1.53;;
6485;SDS011;3276;48.490;9.222;2023-12-29T05:37:34;2.53;;;1.47;;
6485;SDS011;3276;48.490;9.222;2023-12-29T05:40:00;2.23;;;1.30;;
6485;SDS011;3276;48.490;9.222;2023-12-29T05:42:26;2.70;;;1.90;;
6485;SDS011;3276;48.490;9.222;2023-12-29T05:44:52;2.20;;;1.30;;
6485;SDS011;3276;48.490;9.222;2023-12-29T05:47:18;2.53;;;1.60;;
6485;SDS011;3276;48.490;9.222;2023-12-29T05:49:44;2.77;;;1.27;;
6485;SDS011;3276;48.490;9.222;2023-12-29T05:52:10;2.70;;;1.60;;
6485;SDS011;3276;48.490;9.222;2023-12-29T05:54:36;2.63;;;1.67;;
6485;SDS011;3276;48.490;9.222;2023-12-29T05:57:02;2.20;;;1.00;;
6485;SDS011;3276;48.490;9.222;2023-12-29T05:59:28;2.83;;;1.60;;
6485;SDS011;3276;48.490;9.222;2023-12-29T06:01:54;2.10;;;1.20;;
6485;SDS011;3276;48.490;9.222;2023-12-29T06:04:21;2.30;;;1.53;;
6485;SDS011;3276;48.490;9.222;2023-12-29T06:06:47;2.03;;;1.17;;
6485;SDS011;3276;48.490;9.222;2023-12-29T06:09:13;2.07;;;1.13;;
6485;SDS011;3276;48.490;9.222;2023-12-29T06:11:38;1.97;;;1.10;;
6485;SDS011;3276;48.490;9.222;2023-12-29T06:14:04;2.00;;;0.93;;
6485;SDS011;3276;48.490;9.222;2023-12-29T06:16:30;2.43;;;1.00;;
6485;SDS011;3276;48.490;9.222;2023-12-29T06:18:56;3.30;;;1.17;;
6485;SDS011;3276;48.490;9.222;2023-12-29T06:21:22;5.07;;;1.80;;
6485;SDS011;3276;48.490;9.222;2023-12-29T06:23:48;2.53;;;1.23;;
6485;SDS011;3276;48.490;9.222;2023-12-29T06:26:17;3.17;;;1.73;;
6485;SDS011;3276;48.490;9.222;2023-12-29T06:28:44;3.00;;;1.57;;
6485;SDS011;3276;48.490;9.222;2023-12-29T06:31:10;2.93;;;1.27;;
6485;SDS011;3276;48.490;9.222;2023-12-29T06:33:36;2.53;;;0.90;;
6485;SDS011;3276;48.490;9.222;2023-12-29T06:36:02;2.27;;;1.30;;
6485;SDS011;3276;48.490;9.222;2023-12-29T06:38:28;3.13;;;1.07;;
6485;SDS011;3276;48.490;9.222;2023-12-29T06:40:55;3.47;;;1.33;;
6485;SDS011;3276;48.490;9.222;2023-12-29T06:43:21;2.40;;;1.27;;
6485;SDS011;3276;48.490;9.222;2023-12-29T06:45:46;2.10;;;1.27;;
6485;SDS011;3276;48.490;9.222;2023-12-29T06:48:12;2.80;;;1.40;;
6485;SDS011;3276;48.490;9.222;2023-12-29T06:50:38;2.67;;;1.50;;
6485;SDS011;3276;48.490;9.222;2023-12-29T06:53:04;2.00;;;1.00;;
6485;SDS011;3276;48.490;9.222;2023-12-29T06:55:30;1.77;;;0.83;;
6485;SDS011;3276;48.490;9.222;2023-12-29T06:57:56;2.47;;;1.43;;
6485;SDS011;3276;48.490;9.222;2023-12-29T07:00:22;2.10;;;1.20;;
6485;SDS011;3276;48.490;9.222;2023-12-29T07:02:48;2.30;;;1.50;;
6485;SDS011;3276;48.490;9.222;2023-12-29T07:05:14;3.43;;;1.43;;
6485;SDS011;3276;48.490;9.222;2023-12-29T07:07:40;2.30;;;1.30;;
6485;SDS011;3276;48.490;9.222;2023-12-29T07:10:06;2.90;;;1.20;;
6485;SDS011;3276;48.490;9.222;2023-12-29T07:12:33;2.20;;;1.23;;
6485;SDS011;3276;48.490;9.222;2023-12-29T07:14:59;2.40;;;1.40;;
6485;SDS011;3276;48.490;9.222;2023-12-29T07:17:25;1.77;;;1.00;;
6485;SDS011;3276;48.490;9.222;2023-12-29T07:19:50;2.57;;;1.30;;
6485;SDS011;3276;48.490;9.222;2023-12-29T07:22:16;3.43;;;1.70;;
6485;SDS011;3276;48.490;9.222;2023-12-29T07:24:42;1.93;;;1.10;;
6485;SDS011;3276;48.490;9.222;2023-12-29T07:27:09;2.30;;;1.23;;
6485;SDS011;3276;48.490;9.222;2023-12-29T07:29:34;2.53;;;1.50;;
6485;SDS011;3276;48.490;9.222;2023-12-29T07:32:00;1.83;;;1.00;;
6485;SDS011;3276;48.490;9.222;2023-12-29T07:34:26;2.00;;;1.17;;
6485;SDS011;3276;48.490;9.222;2023-12-29T07:36:53;2.43;;;1.20;;
6485;SDS011;3276;48.490;9.222;2023-12-29T07:39:19;2.37;;;1.03;;
6485;SDS011;3276;48.490;9.222;2023-12-29T07:41:45;2.13;;;1.30;;
6485;SDS011;3276;48.490;9.222;2023-12-29T07:44:13;3.70;;;1.97;;
6485;SDS011;3276;48.490;9.222;2023-12-29T07:46:39;2.33;;;1.40;;
6485;SDS011;3276;48.490;9.222;2023-12-29T07:49:06;3.10;;;1.90;;
6485;SDS011;3276;48.490;9.222;2023-12-29T07:51:32;2.10;;;1.00;;
6485;SDS011;3276;48.490;9.222;2023-12-29T07:53:58;2.03;;;1.20;;
6485;SDS011;3276;48.490;9.222;2023-12-29T07:56:24;3.60;;;1.70;;
6485;SDS011;3276;48.490;9.222;2023-12-29T07:58:50;1.90;;;1.00;;
6485;SDS011;3276;48.490;9.222;2023-12-29T08:01:16;2.43;;;1.40;;
6485;SDS011;3276;48.490;9.222;2023-12-29T08:03:42;1.80;;;0.90;;
6485;SDS011;3276;48.490;9.222;2023-12-29T08:06:08;3.40;;;1.53;;
6485;SDS011;3276;48.490;9.222;2023-12-29T08:08:34;2.10;;;1.00;;
6485;SDS011;3276;48.490;9.222;2023-12-29T08:11:00;2.57;;;1.33;;
6485;SDS011;3276;48.490;9.222;2023-12-29T08:13:26;1.60;;;0.70;;
6485;SDS011;3276;48.490;9.222;2023-12-29T08:15:52;2.43;;;1.20;;
6485;SDS011;3276;48.490;9.222;2023-12-29T08:18:18;2.30;;;1.10;;
6485;SDS011;3276;48.490;9.222;2023-12-29T08:20:44;2.23;;;1.00;;
6485;SDS011;3276;48.490;9.222;2023-12-29T08:23:10;2.00;;;1.23;;
6485;SDS011;3276;48.490;9.222;2023-12-29T08:25:36;3.20;;;1.63;;
6485;SDS011;3276;48.490;9.222;2023-12-29T08:28:02;2.63;;;1.00;;
6485;SDS011;3276;48.490;9.222;2023-12-29T08:30:28;2.53;;;1.47;;
6485;SDS011;3276;48.490;9.222;2023-12-29T08:32:54;2.20;;;1.00;;
6485;SDS011;3276;48.490;9.222;2023-12-29T08:35:20;2.20;;;1.30;;
6485;SDS011;3276;48.490;9.222;2023-12-29T08:37:46;2.57;;;1.47;;
6485;SDS011;3276;48.490;9.222;2023-12-29T08:40:12;2.13;;;1.20;;
6485;SDS011;3276;48.490;9.222;2023-12-29T08:42:38;3.77;;;1.50;;
6485;SDS011;3276;48.490;9.222;2023-12-29T08:45:04;3.70;;;2.00;;
6485;SDS011;3276;48.490;9.222;2023-12-29T08:47:30;2.60;;;1.50;;
6485;SDS011;3276;48.490;9.222;2023-12-29T08:49:56;1.90;;;1.00;;
6485;SDS011;3276;48.490;9.222;2023-12-29T08:52:22;5.20;;;1.40;;
6485;SDS011;3276;48.490;9.222;2023-12-29T08:54:48;2.40;;;1.20;;
6485;SDS011;3276;48.490;9.222;2023-12-29T08:57:14;2.30;;;1.00;;
6485;SDS011;3276;48.490;9.222;2023-12-29T08:59:40;2.07;;;0.80;;
6485;SDS011;3276;48.490;9.222;2023-12-29T09:02:06;2.50;;;1.40;;
6485;SDS011;3276;48.490;9.222;2023-12-29T09:04:32;2.53;;;1.00;;
6485;SDS011;3276;48.490;9.222;2023-12-29T09:06:58;2.00;;;1.00;;
6485;SDS011;3276;48.490;9.222;2023-12-29T09:09:24;2.00;;;0.73;;
6485;SDS011;3276;48.490;9.222;2023-12-29T09:11:50;2.53;;;0.97;;
6485;SDS011;3276;48.490;9.222;2023-12-29T09:14:16;2.03;;;0.90;;
6485;SDS011;3276;48.490;9.222;2023-12-29T09:16:42;2.20;;;0.90;;
6485;SDS011;3276;48.490;9.222;2023-12-29T09:19:11;3.20;;;1.40;;
6485;SDS011;3276;48.490;9.222;2023-12-29T09:21:37;3.03;;;1.00;;
6485;SDS011;3276;48.490;9.222;2023-12-29T09:24:03;2.07;;;0.90;;
6485;SDS011;3276;48.490;9.222;2023-12-29T09:26:29;2.07;;;1.17;;
6485;SDS011;3276;48.490;9.222;2023-12-29T09:28:55;1.73;;;0.97;;
6485;SDS011;3276;48.490;9.222;2023-12-29T09:31:21;1.80;;;0.90;;
6485;SDS011;3276;48.490;9.222;2023-12-29T09:33:47;1.63;;;0.80;;
6485;SDS011;3276;48.490;9.222;2023-12-29T09:36:13;1.70;;;0.90;;
6485;SDS011;3276;48.490;9.222;2023-12-29T09:38:42;2.33;;;1.27;;
6485;SDS011;3276;48.490;9.222;2023-12-29T09:41:11;1.60;;;0.80;;
6485;SDS011;3276;48.490;9.222;2023-12-29T09:43:39;1.80;;;0.80;;
6485;SDS011;3276;48.490;9.222;2023-12-29T09:46:07;1.80;;;0.77;;
6485;SDS011;3276;48.490;9.222;2023-12-29T09:48:34;2.50;;;1.20;;
6485;SDS011;3276;48.490;9.222;2023-12-29T09:51:02;3.67;;;1.67;;
6485;SDS011;3276;48.490;9.222;2023-12-29T09:53:28;2.87;;;1.90;;
6485;SDS011;3276;48.490;9.222;2023-12-29T09:55:55;2.63;;;1.43;;
6485;SDS011;3276;48.490;9.222;2023-12-29T09:58:22;1.83;;;1.10;;
6485;SDS011;3276;48.490;9.222;2023-12-29T10:00:50;1.60;;;0.90;;
6485;SDS011;3276;48.490;9.222;2023-12-29T10:03:17;1.80;;;0.87;;
6485;SDS011;3276;48.490;9.222;2023-12-29T10:05:43;2.53;;;1.13;;
6485;SDS011;3276;48.490;9.222;2023-12-29T10:08:10;2.43;;;1.20;;
6485;SDS011;3276;48.490;9.222;2023-12-29T10:10:37;1.87;;;0.90;;
6485;SDS011;3276;48.490;9.222;2023-12-29T10:13:04;2.00;;;1.00;;
6485;SDS011;3276;48.490;9.222;2023-12-29T10:15:35;3.03;;;1.30;;
6485;SDS011;3276;48.490;9.222;2023-12-29T10:18:22;1.90;;;1.00;;
6485;SDS011;3276;48.490;9.222;2023-12-29T10:26:07;1.80;;;1.00;;
6485;SDS011;3276;48.490;9.222;2023-12-29T10:28:36;2.33;;;0.90;;
6485;SDS011;3276;48.490;9.222;2023-12-29T10:31:02;1.73;;;1.17;;
6485;SDS011;3276;48.490;9.222;2023-12-29T10:33:29;2.27;;;0.97;;
6485;SDS011;3276;48.490;9.222;2023-12-29T10:35:57;1.80;;;0.87;;
6485;SDS011;3276;48.490;9.222;2023-12-29T10:38:29;3.43;;;0.97;;
6485;SDS011;3276;48.490;9.222;2023-12-29T10:41:12;3.50;;;1.10;;
6485;SDS011;3276;48.490;9.222;2023-12-29T10:43:39;2.50;;;1.10;;
6485;SDS011;3276;48.490;9.222;2023-12-29T10:46:09;2.43;;;1.33;;
6485;SDS011;3276;48.490;9.222;2023-12-29T10:48:36;3.20;;;1.30;;
6485;SDS011;3276;48.490;9.222;2023-12-29T10:51:02;2.80;;;1.00;;
6485;SDS011;3276;48.490;9.222;2023-12-29T10:53:29;1.87;;;0.93;;
6485;SDS011;3276;48.490;9.222;2023-12-29T10:55:58;2.33;;;0.93;;
6485;SDS011;3276;48.490;9.222;2023-12-29T10:58:28;1.90;;;0.90;;
6485;SDS011;3276;48.490;9.222;2023-12-29T11:00:55;2.53;;;1.13;;
6485;SDS011;3276;48.490;9.222;2023-12-29T11:03:21;1.80;;;1.10;;
6485;SDS011;3276;48.490;9.222;2023-12-29T11:05:47;1.83;;;0.93;;
6485;SDS011;3276;48.490;9.222;2023-12-29T11:08:20;2.10;;;0.90;;
6485;SDS011;3276;48.490;9.222;2023-12-29T11:10:48;1.90;;;1.00;;
6485;SDS011;3276;48.490;9.222;2023-12-29T11:13:14;3.17;;;1.30;;
6485;SDS011;3276;48.490;9.222;2023-12-29T11:15:41;2.87;;;1.60;;
6485;SDS011;3276;48.490;9.222;2023-12-29T11:18:09;2.63;;;1.10;;
6485;SDS011;3276;48.490;9.222;2023-12-29T11:20:35;2.00;;;1.13;;
6485;SDS011;3276;48.490;9.222;2023-12-29T11:23:05;2.30;;;1.10;;
6485;SDS011;3276;48.490;9.222;2023-12-29T11:25:32;1.70;;;0.90;;
6485;SDS011;3276;48.490;9.222;2023-12-29T11:27:58;4.03;;;1.20;;
6485;SDS011;3276;48.490;9.222;2023-12-29T11:30:24;2.23;;;1.60;;
6485;SDS011;3276;48.490;9.222;2023-12-29T11:35:28;2.73;;;1.80;;
6485;SDS011;3276;48.490;9.222;2023-12-29T11:40:45;2.63;;;1.40;;
6485;SDS011;3276;48.490;9.222;2023-12-29T11:43:12;2.47;;;1.53;;
6485;SDS011;3276;48.490;9.222;2023-12-29T11:45:38;3.70;;;1.33;;
6485;SDS011;3276;48.490;9.222;2023-12-29T11:48:04;2.17;;;1.20;;
6485;SDS011;3276;48.490;9.222;2023-12-29T11:50:31;2.13;;;1.10;;
6485;SDS011;3276;48.490;9.222;2023-12-29T11:52:58;2.33;;;1.47;;
6485;SDS011;3276;48.490;9.222;2023-12-29T11:55:28;2.40;;;1.30;;
6485;SDS011;3276;48.490;9.222;2023-12-29T11:57:54;2.10;;;1.10;;
6485;SDS011;3276;48.490;9.222;2023-12-29T12:00:20;1.83;;;1.10;;
6485;SDS011;3276;48.490;9.222;2023-12-29T12:02:46;2.10;;;1.30;;
6485;SDS011;3276;48.490;9.222;2023-12-29T12:05:44;2.30;;;1.10;;
6485;SDS011;3276;48.490;9.222;2023-12-29T12:08:02;1.80;;;0.90;;
6485;SDS011;3276;48.490;9.222;2023-12-29T12:10:28;2.20;;;1.20;;
6485;SDS011;3276;48.490;9.222;2023-12-29T12:12:58;2.20;;;1.50;;
6485;SDS011;3276;48.490;9.222;2023-12-29T12:17:54;2.77;;;2.00;;
6485;SDS011;3276;48.490;9.222;2023-12-29T12:20:21;3.20;;;1.70;;
6485;SDS011;3276;48.490;9.222;2023-12-29T12:22:54;2.33;;;1.50;;
6485;SDS011;3276;48.490;9.222;2023-12-29T12:25:25;2.00;;;1.00;;
6485;SDS011;3276;48.490;9.222;2023-12-29T12:27:54;1.80;;;0.97;;
6485;SDS011;3276;48.490;9.222;2023-12-29T12:30:21;2.70;;;1.33;;
6485;SDS011;3276;48.490;9.222;2023-12-29T12:32:56;2.17;;;1.10;;
6485;SDS011;3276;48.490;9.222;2023-12-29T12:35:23;2.30;;;1.30;;
6485;SDS011;3276;48.490;9.222;2023-12-29T12:37:51;2.63;;;1.30;;
6485;SDS011;3276;48.490;9.222;2023-12-29T12:40:32;2.67;;;1.57;;
6485;SDS011;3276;48.490;9.222;2023-12-29T12:42:58;2.00;;;1.00;;
6485;SDS011;3276;48.490;9.222;2023-12-29T12:45:24;3.20;;;1.93;;
6485;SDS011;3276;48.490;9.222;2023-12-29T12:47:52;2.57;;;1.30;;
6485;SDS011;3276;48.490;9.222;2023-12-29T12:50:20;1.70;;;1.00;;
6485;SDS011;3276;48.490;9.222;2023-12-29T12:52:46;2.83;;;1.40;;
6485;SDS011;3276;48.490;9.222;2023-12-29T12:55:12;2.20;;;1.17;;
6485;SDS011;3276;48.490;9.222;2023-12-29T12:57:39;3.50;;;1.63;;
6485;SDS011;3276;48.490;9.222;2023-12-29T13:00:05;2.63;;;1.77;;
6485;SDS011;3276;48.490;9.222;2023-12-29T13:02:32;2.20;;;1.13;;
6485;SDS011;3276;48.490;9.222;2023-12-29T13:04:59;1.80;;;1.10;;
6485;SDS011;3276;48.490;9.222;2023-12-29T13:07:27;2.43;;;1.77;;
6485;SDS011;3276;48.490;9.222;2023-12-29T13:09:53;3.60;;;1.40;;
6485;SDS011;3276;48.490;9.222;2023-12-29T13:12:19;2.07;;;1.17;;
6485;SDS011;3276;48.490;9.222;2023-12-29T13:14:45;2.10;;;1.37;;
6485;SDS011;3276;48.490;9.222;2023-12-29T13:17:12;2.63;;;1.33;;
6485;SDS011;3276;48.490;9.222;2023-12-29T13:19:39;2.20;;;1.50;;
6485;SDS011;3276;48.490;9.222;2023-12-29T13:22:06;2.40;;;1.53;;
6485;SDS011;3276;48.490;9.222;2023-12-29T13:24:33;1.90;;;1.07;;
6485;SDS011;3276;48.490;9.222;2023-12-29T13:27:06;2.43;;;1.70;;
6485;SDS011;3276;48.490;9.222;2023-12-29T13:29:35;3.60;;;1.47;;
6485;SDS011;3276;48.490;9.222;2023-12-29T13:32:10;2.80;;;1.20;;
6485;SDS011;3276;48.490;9.222;2023-12-29T13:37:25;1.73;;;1.10;;
6485;SDS011;3276;48.490;9.222;2023-12-29T13:42:17;1.93;;;1.30;;
6485;SDS011;3276;48.490;9.222;2023-12-29T13:44:44;3.03;;;1.97;;
6485;SDS011;3276;48.490;9.222;2023-12-29T13:47:10;2.43;;;1.57;;
6485;SDS011;3276;48.490;9.222;2023-12-29T13:49:37;2.07;;;1.20;;
6485;SDS011;3276;48.490;9.222;2023-12-29T13:52:03;2.33;;;1.40;;
6485;SDS011;3276;48.490;9.222;2023-12-29T13:54:30;2.60;;;1.20;;
6485;SDS011;3276;48.490;9.222;2023-12-29T13:56:56;1.83;;;1.13;;
6485;SDS011;3276;48.490;9.222;2023-12-29T13:59:31;7.60;;;1.60;;
6485;SDS011;3276;48.490;9.222;2023-12-29T14:01:58;2.70;;;1.70;;
6485;SDS011;3276;48.490;9.222;2023-12-29T14:04:25;2.27;;;1.30;;
6485;SDS011;3276;48.490;9.222;2023-12-29T14:06:54;2.53;;;1.53;;
6485;SDS011;3276;48.490;9.222;2023-12-29T14:09:25;1.87;;;1.40;;
6485;SDS011;3276;48.490;9.222;2023-12-29T14:11:51;3.67;;;2.00;;
6485;SDS011;3276;48.490;9.222;2023-12-29T14:14:21;3.00;;;1.60;;
6485;SDS011;3276;48.490;9.222;2023-12-29T14:16:49;3.10;;;2.10;;
6485;SDS011;3276;48.490;9.222;2023-12-29T14:19:15;3.27;;;1.67;;
6485;SDS011;3276;48.490;9.222;2023-12-29T14:21:41;3.37;;;1.50;;
6485;SDS011;3276;48.490;9.222;2023-12-29T14:24:14;2.20;;;1.53;;
6485;SDS011;3276;48.490;9.222;2023-12-29T14:26:41;3.37;;;1.70;;
6485;SDS011;3276;48.490;9.222;2023-12-29T14:29:10;2.20;;;1.40;;
6485;SDS011;3276;48.490;9.222;2023-12-29T14:31:43;5.60;;;2.07;;
6485;SDS011;3276;48.490;9.222;2023-12-29T14:34:09;2.90;;;2.20;;
6485;SDS011;3276;48.490;9.222;2023-12-29T14:36:36;2.93;;;2.33;;
6485;SDS011;3276;48.490;9.222;2023-12-29T14:39:03;3.13;;;1.63;;
6485;SDS011;3276;48.490;9.222;2023-12-29T14:41:29;3.20;;;2.27;;
6485;SDS011;3276;48.490;9.222;2023-12-29T14:43:55;1.90;;;1.43;;
6485;SDS011;3276;48.490;9.222;2023-12-29T14:46:22;2.23;;;1.67;;
6485;SDS011;3276;48.490;9.222;2023-12-29T14:48:48;4.40;;;1.50;;
6485;SDS011;3276;48.490;9.222;2023-12-29T14:51:14;2.50;;;1.83;;
6485;SDS011;3276;48.490;9.222;2023-12-29T14:53:44;1.70;;;0.90;;
6485;SDS011;3276;48.490;9.222;2023-12-29T14:56:10;2.37;;;1.40;;
6485;SDS011;3276;48.490;9.222;2023-12-29T14:58:36;3.40;;;2.00;;
6485;SDS011;3276;48.490;9.222;2023-12-29T15:01:02;4.00;;;1.90;;
6485;SDS011;3276;48.490;9.222;2023-12-29T15:03:28;2.97;;;1.63;;
6485;SDS011;3276;48.490;9.222;2023-12-29T15:05:56;2.73;;;1.70;;
6485;SDS011;3276;48.490;9.222;2023-12-29T15:08:22;2.33;;;1.90;;
6485;SDS011;3276;48.490;9.222;2023-12-29T15:10:48;2.80;;;1.83;;
6485;SDS011;3276;48.490;9.222;2023-12-29T15:13:14;3.27;;;2.03;;
6485;SDS011;3276;48.490;9.222;2023-12-29T15:15:41;2.07;;;1.27;;
6485;SDS011;3276;48.490;9.222;2023-12-29T15:18:07;2.40;;;1.23;;
6485;SDS011;3276;48.490;9.222;2023-12-29T15:20:33;2.70;;;1.53;;
6485;SDS011;3276;48.490;9.222;2023-12-29T15:22:59;3.20;;;2.00;;
6485;SDS011;3276;48.490;9.222;2023-12-29T15:25:27;2.80;;;1.97;;
6485;SDS011;3276;48.490;9.222;2023-12-29T15:27:53;4.37;;;2.30;;
6485;SDS011;3276;48.490;9.222;2023-12-29T15:30:19;2.80;;;1.60;;
6485;SDS011;3276;48.490;9.222;2023-12-29T15:32:45;5.47;;;1.87;;
6485;SDS011;3276;48.490;9.222;2023-12-29T15:35:11;2.33;;;1.47;;